Latest Weather Observations for Armidale Airport

IDN60801

Issued at 8:13 pm EDT Thursday 18 December 2014 (issued every 30 minutes, with the page automatically refreshed every 10 minutes)

About weather observations | Map of weather stations | Latest weather observations for NSW | Other Formats
Station Details ID: 056238 Name: ARMIDALE AIRPORT AWS Lat: -30.53 Lon: 151.62 Height: 1079.0 m
Data from the previous 72 hours. | See also: Recent months for locations in New South Wales
Date/Time
EDT
Temp
°C
App
Temp
°C
Dew
Point
Rel
Hum
%
Delta-T
°C
Wind Press
QNH
hPa
Press
MSL
hPa
Rain
since 9 am
mm
Dir
 
Spd
km/h
Gust
km/h
Spd
kts
Gust
kts
18/08:00pm 19.9 15.7 9.8 52 5.7 WNW 22 35 12 19 1012.8 1007.4 4.2
18/07:30pm 19.5 17.4 15.2 76 2.7 W 20 28 11 15 1012.7 1007.3 4.2
18/07:00pm 19.9 17.1 15.3 75 2.9 WNW 24 33 13 18 1012.4 1006.9 4.2
18/06:30pm 20.0 18.4 16.6 81 2.2 WNW 20 28 11 15 1012.3 1006.8 4.2
18/06:00pm 19.6 18.9 16.4 82 2.0 WNW 15 20 8 11 1012.0 1006.6 4.2
18/05:30pm 19.6 18.9 16.3 81 2.1 NW 15 22 8 12 1012.1 1006.7 4.2
18/05:00pm 19.4 18.0 16.6 84 1.8 NNW 19 24 10 13 1012.4 1006.9 4.2
18/04:30pm 17.7 16.4 16.9 95 0.5 NW 19 32 10 17 1012.0 1006.6 4.2
18/04:11pm 17.6 12.7 15.4 87 1.4 WSW 35 54 19 29 1012.8 1007.4 3.4
18/04:00pm 17.7 13.9 16.7 94 0.6 SW 32 46 17 25 1012.1 1006.7 3.2
18/03:58pm 17.6 13.7 16.5 93 0.7 SW 32 46 17 25 1012.0 1006.6 3.2
18/03:45pm 17.2 10.1 16.9 98 0.2 SW 50 82 27 44 1011.4 1005.9 3.2
18/03:39pm 17.0 9.2 15.3 90 1.0 WSW 50 82 27 44 1011.5 1006.0 3.0
18/03:35pm 17.7 12.7 14.0 79 2.2 WSW 33 80 18 43 1011.4 1005.9 2.0
18/03:34pm 18.5 14.5 14.0 75 2.7 W 28 76 15 41 1011.4 1005.9 2.0
18/03:33pm 21.5 19.4 17.1 76 2.8 W 24 54 13 29 1011.4 1005.9 1.8
18/03:30pm 22.3 21.1 17.0 72 3.4 WNW 19 33 10 18 1011.3 1005.8 0.8
18/03:00pm 23.2 21.3 16.7 67 4.2 NW 22 32 12 17 1009.9 1004.4 0.6
18/02:44pm 23.5 18.9 15.0 59 5.3 NW 33 54 18 29 1008.9 1003.4 0.6
18/02:30pm 27.0 23.0 15.1 48 7.6 NW 30 39 16 21 1009.4 1003.9 0.2
18/02:00pm 27.8 24.0 14.8 45 8.2 NW 28 35 15 19 1010.7 1005.2 0.2
18/01:42pm 27.6 23.0 14.6 45 8.2 NW 32 52 17 28 1011.3 1005.8 0.2
18/01:30pm 27.8 25.1 16.7 50 7.2 NW 26 35 14 19 1011.7 1006.3 0.2
18/01:00pm 26.9 23.5 15.9 51 7.1 NW 28 43 15 23 1012.1 1006.7 0.2
18/12:51pm 27.0 23.7 16.0 51 7.1 NW 28 46 15 25 1012.3 1006.8 0.2
18/12:30pm 26.3 23.3 16.8 56 6.2 NW 28 43 15 23 1012.3 1006.8 0.2
18/12:00pm 25.8 22.4 15.8 54 6.4 NNW 28 41 15 22 1012.8 1007.4 0.2
18/11:30am 25.2 21.0 15.8 56 6.0 NW 32 41 17 22 1013.1 1007.7 0.2
18/11:00am 24.4 21.0 15.9 59 5.4 NNW 28 35 15 19 1013.5 1008.1 0.2
18/10:30am 24.0 19.8 14.7 56 5.8 NNW 30 39 16 21 1013.5 1008.1 0.2
18/10:00am 23.9 19.4 16.4 63 4.8 NW 35 46 19 25 1013.5 1008.1 0.0
18/09:30am 23.9 19.7 15.7 60 5.2 NW 32 43 17 23 1013.5 1008.1 0.0
18/09:00am 23.0 19.0 15.3 62 4.8 NNW 30 44 16 24 1013.4 1008.0 4.6
18/08:30am 22.0 18.2 15.8 68 3.9 NNW 30 41 16 22 1013.9 1008.5 4.6
18/08:00am 21.4 18.4 14.8 66 4.1 NNW 24 35 13 19 1013.9 1008.5 4.6
18/07:30am 20.1 17.3 14.2 69 3.6 N 22 33 12 18 1013.6 1008.2 4.6
18/07:00am 19.6 16.3 14.0 70 3.4 N 24 37 13 20 1013.9 1008.5 4.6
18/06:30am 18.6 15.3 13.9 74 2.8 NNE 24 32 13 17 1013.3 1007.8 4.6
18/06:00am 17.4 14.8 13.3 77 2.4 NE 19 24 10 13 1012.6 1007.2 4.6
18/05:30am 17.6 13.4 13.5 77 2.4 NE 28 32 15 17 1012.5 1007.1 4.6
18/05:00am 17.3 14.6 13.4 78 2.3 ENE 20 24 11 13 1012.6 1007.2 4.6
18/04:30am 17.8 14.5 12.9 73 2.9 NE 22 28 12 15 1012.6 1007.2 4.6
18/04:00am 17.7 13.7 11.9 69 3.4 NNE 24 33 13 18 1012.6 1007.2 4.6
18/03:30am 18.1 14.8 11.7 66 3.7 NE 20 35 11 19 1012.1 1006.7 4.6
18/03:00am 17.5 14.5 12.0 70 3.2 ENE 19 24 10 13 1011.7 1006.3 4.6
18/02:30am 17.2 15.1 12.5 74 2.7 ENE 15 20 8 11 1011.7 1006.3 4.6
18/02:00am 17.9 14.9 12.4 70 3.2 E 20 22 11 12 1011.5 1006.0 4.6
18/01:30am 17.4 14.9 12.3 72 3.0 ENE 17 20 9 11 1012.3 1006.8 4.6
18/01:00am 19.1 16.0 12.1 64 4.1 NE 20 28 11 15 1013.1 1007.7 4.6
18/12:30am 18.0 16.1 11.8 67 3.6 NW 13 20 7 11 1014.0 1008.6 4.6
18/12:00am 16.7 15.2 15.2 91 0.9 ENE 17 19 9 10 1013.7 1008.3 4.6
 
Date/Time
EDT
Temp
°C
App
Temp
°C
Dew
Point
Rel
Hum
%
Delta-T
°C
Wind Press
QNH
hPa
Press
MSL
hPa
Rain
since 9 am
mm
Dir
 
Spd
km/h
Gust
km/h
Spd
kts
Gust
kts
17/11:30pm 16.4 14.6 15.4 94 0.6 ENE 19 20 10 11 1013.3 1007.8 4.6
17/11:00pm 16.9 15.8 15.4 91 0.9 ESE 15 19 8 10 1013.3 1007.8 4.6
17/10:30pm 17.2 15.5 15.7 91 0.9 E 19 20 10 11 1013.1 1007.7 4.6
17/10:00pm 17.6 16.9 15.4 87 1.4 E 13 17 7 9 1013.3 1007.8 4.6
17/09:30pm 18.0 16.4 16.0 88 1.2 ENE 19 24 10 13 1013.3 1007.8 4.6
17/09:00pm 18.3 16.7 16.6 90 1.1 E 20 28 11 15 1012.9 1007.5 4.6
17/08:30pm 18.4 16.5 16.7 90 1.1 E 22 30 12 16 1012.9 1007.5 4.6
17/08:09pm 18.7 16.3 16.3 86 1.5 E 24 35 13 19 1012.6 1007.2 4.6
17/08:00pm 18.8 16.1 15.7 82 1.9 ESE 24 35 13 19 1012.7 1007.3 4.6
17/07:53pm 19.3 17.2 15.2 77 2.5 E 20 28 11 15 1012.9 1007.5 4.2
17/07:30pm 21.0 18.7 11.9 56 5.3 NNE 15 20 8 11 1011.5 1006.0 2.8
17/07:00pm 22.0 20.4 12.8 56 5.5 ENE 13 22 7 12 1010.9 1005.5 2.4
17/06:30pm 21.7 19.2 12.3 55 5.6 N 17 20 9 11 1010.6 1005.1 1.6
17/06:09pm 20.9 20.7 14.8 68 3.8 WNW 9 17 5 9 1010.7 1005.2 1.6
17/06:00pm 20.2 17.7 13.4 65 4.1 W 19 33 10 18 1010.7 1005.2 1.6
17/05:55pm 20.5 16.8 12.7 61 4.6 WNW 24 33 13 18 1010.8 1005.4 1.6
17/05:54pm 20.6 16.9 12.6 60 4.7 WNW 24 33 13 18 1011.0 1005.6 1.6
17/05:30pm 26.0 23.3 8.9 34 9.8 NNW 13 20 7 11 1009.9 1004.4 0.2
17/05:00pm 26.5 22.4 8.0 31 10.5 NNW 19 24 10 13 1010.3 1004.8 0.2
17/04:30pm 27.7 22.5 9.0 31 10.8 NNW 26 33 14 18 1009.8 1004.3 0.2
17/04:00pm 29.3 24.1 8.9 28 11.9 NW 26 35 14 19 1010.1 1004.7 0.2
17/03:30pm 28.8 24.7 7.9 27 11.9 WSW 19 26 10 14 1010.4 1004.9 0.2
17/03:00pm 28.1 23.2 6.8 26 11.9 W 22 32 12 17 1010.6 1005.1 0.2
17/02:30pm 28.8 23.6 7.4 26 12.1 NW 24 37 13 20 1010.5 1005.0 0.2
17/02:00pm 28.8 24.0 7.4 26 12.1 WNW 22 37 12 20 1011.0 1005.6 0.2
17/01:30pm 29.8 23.3 8.2 26 12.4 WNW 32 43 17 23 1011.1 1005.7 0.2
17/01:00pm 29.3 24.5 8.9 28 11.9 NW 24 44 13 24 1011.4 1005.9 0.2
17/12:30pm 28.1 22.7 9.4 31 10.9 WNW 28 39 15 21 1011.8 1006.4 0.2
17/12:00pm 28.1 23.2 11.2 35 10.1 WNW 28 39 15 21 1011.9 1006.5 0.2
17/11:30am 27.3 21.9 9.6 33 10.3 NW 28 39 15 21 1011.9 1006.5 0.2
17/11:00am 26.9 21.8 10.6 36 9.6 WNW 28 37 15 20 1011.8 1006.4 0.2
17/10:30am 26.7 22.4 10.8 37 9.4 WNW 24 35 13 19 1011.8 1006.4 0.2
17/10:00am 26.1 22.5 11.8 41 8.6 WNW 22 30 12 16 1011.7 1006.3 0.2
17/09:30am 25.2 20.9 12.1 44 7.9 NW 26 32 14 17 1011.6 1006.1 0.2
17/09:00am 24.0 19.6 11.7 46 7.3 NW 26 33 14 18 1011.7 1006.3 0.8
17/08:30am 22.9 18.1 11.6 49 6.7 NW 28 35 15 19 1011.7 1006.3 0.8
17/08:00am 21.9 18.1 12.5 55 5.6 NW 24 32 13 17 1011.6 1006.1 0.8
17/07:30am 20.9 18.1 12.6 59 4.9 NW 19 26 10 14 1011.3 1005.8 0.8
17/07:00am 19.5 16.6 12.3 63 4.2 NW 19 24 10 13 1010.9 1005.5 0.8
17/06:30am 17.5 14.5 11.8 69 3.3 NW 19 22 10 12 1010.5 1005.0 0.8
17/06:00am 16.7 13.5 11.2 70 3.1 NW 19 22 10 12 1009.9 1004.4 0.8
17/05:30am 16.2 13.1 11.6 74 2.6 NW 19 24 10 13 1009.5 1004.0 0.8
17/05:00am 15.6 12.9 11.6 77 2.3 NW 17 20 9 11 1009.4 1003.9 0.8
17/04:30am 15.6 13.2 11.4 76 2.4 NW 15 17 8 9 1009.1 1003.7 0.8
17/04:00am 16.0 14.0 11.6 75 2.5 NW 13 15 7 8 1009.0 1003.5 0.8
17/03:30am 16.3 14.4 11.7 74 2.6 WNW 13 17 7 9 1009.1 1003.7 0.8
17/03:00am 17.1 14.4 11.8 71 3.1 WNW 17 24 9 13 1009.1 1003.7 0.8
17/02:30am 17.0 15.2 12.1 73 2.8 NW 13 15 7 8 1009.3 1003.8 0.8
17/02:00am 18.5 15.9 12.0 66 3.8 NNW 17 20 9 11 1009.1 1003.7 0.8
17/01:30am 18.6 16.0 11.9 65 3.9 NW 17 24 9 13 1009.1 1003.7 0.8
17/01:00am 19.1 15.5 11.9 63 4.2 WNW 22 35 12 19 1009.3 1003.8 0.8
17/12:30am 18.5 15.7 12.5 68 3.5 WNW 19 26 10 14 1009.4 1003.9 0.8
17/12:00am 19.0 14.7 12.0 64 4.1 NW 26 39 14 21 1009.5 1004.0 0.8
 
Date/Time
EDT
Temp
°C
App
Temp
°C
Dew
Point
Rel
Hum
%
Delta-T
°C
Wind Press
QNH
hPa
Press
MSL
hPa
Rain
since 9 am
mm
Dir
 
Spd
km/h
Gust
km/h
Spd
kts
Gust
kts
16/11:30pm 19.1 15.3 12.4 65 3.9 NW 24 33 13 18 1009.8 1004.3 0.8
16/11:00pm 18.6 15.8 12.6 68 3.5 NNW 19 26 10 14 1010.5 1005.0 0.8
16/10:30pm 18.0 15.9 13.7 76 2.6 NNW 17 26 9 14 1011.4 1005.9 0.8
16/10:00pm 17.0 16.3 14.3 84 1.6 N 11 15 6 8 1011.5 1006.0 0.8
16/09:30pm 17.8 16.7 14.3 80 2.1 NNW 13 17 7 9 1012.5 1007.1 0.8
16/09:00pm 17.8 16.5 14.9 83 1.8 NW 15 19 8 10 1012.8 1007.4 0.8
16/08:30pm 18.4 17.1 14.7 79 2.3 WSW 15 24 8 13 1012.5 1007.1 0.8
16/08:00pm 19.3 17.6 13.5 69 3.5 NW 15 20 8 11 1010.9 1005.5 0.8
16/07:30pm 18.8 18.4 15.1 79 2.3 W 11 15 6 8 1011.3 1005.8 0.8
16/07:00pm 18.8 18.8 15.3 80 2.2 W 9 15 5 8 1010.5 1005.0 0.8
16/06:49pm 18.6 17.7 14.9 79 2.3 WNW 13 19 7 10 1010.3 1004.8 0.8
16/06:36pm 18.7 13.0 13.1 70 3.3 W 35 54 19 29 1010.5 1005.0 0.4
16/06:35pm 19.0 12.9 13.0 68 3.6 W 37 54 20 29 1010.6 1005.1 0.4
16/06:30pm 20.4 14.4 12.1 59 4.9 W 35 54 19 29 1010.7 1005.2 0.0
16/06:26pm 22.0 16.9 10.5 48 6.6 W 28 54 15 29 1010.4 1004.9 0.0
16/06:23pm 24.3 19.8 8.7 37 8.8 W 22 32 12 17 1010.1 1004.7 0.0
16/06:00pm 25.3 19.9 7.9 33 9.8 NW 26 35 14 19 1008.1 1002.6 0.0
16/05:30pm 26.2 21.1 7.7 31 10.4 WNW 24 35 13 19 1008.7 1003.2 0.0
16/05:00pm 26.2 21.0 7.3 30 10.6 WNW 24 35 13 19 1008.6 1003.1 0.0
16/04:30pm 26.7 20.8 7.7 30 10.7 WNW 28 35 15 19 1008.9 1003.4 0.0
16/04:00pm 27.3 22.3 8.2 30 10.9 NNW 24 32 13 17 1008.9 1003.4 0.0
16/03:30pm 27.1 23.0 8.5 31 10.6 NW 20 33 11 18 1009.4 1003.9 0.0
16/03:00pm 27.7 24.0 10.0 33 10.4 WNW 20 28 11 15 1010.1 1004.7 0.0
16/02:30pm 25.4 21.3 10.1 38 8.9 NW 22 28 12 15 1010.9 1005.5 0.0
16/02:00pm 25.3 19.5 7.9 33 9.8 W 28 37 15 20 1011.5 1006.0 0.0
16/01:30pm 26.4 21.1 8.4 32 10.2 WNW 26 35 14 19 1011.1 1005.7 0.0
16/01:00pm 26.9 21.7 8.8 32 10.4 WNW 26 35 14 19 1011.4 1005.9 0.0
16/12:30pm 27.0 21.8 8.9 32 10.4 WNW 26 35 14 19 1011.8 1006.4 0.0
16/12:00pm 26.0 19.7 7.6 31 10.3 W 30 37 16 20 1012.1 1006.7 0.0
16/11:30am 25.7 22.5 9.9 37 9.2 W 17 26 9 14 1012.0 1006.6 0.0
16/11:00am 24.7 20.8 10.9 42 8.1 WNW 22 28 12 15 1012.5 1007.1 0.0
16/10:30am 24.4 21.2 9.9 40 8.4 NW 17 24 9 13 1012.5 1007.1 0.0
16/10:00am 24.4 20.6 9.9 40 8.4 W 20 26 11 14 1013.0 1007.6 0.0
16/09:30am 23.6 19.6 6.8 34 9.2 NW 17 22 9 12 1013.1 1007.7 0.0
16/09:00am 22.8 18.3 4.3 30 9.6 NW 17 20 9 11 1013.1 1007.7 0.0
16/08:30am 22.1 18.8 6.3 36 8.5 WNW 13 15 7 8 1013.4 1008.0 0.0
16/08:00am 20.1 18.0 8.1 46 6.6 WNW 9 15 5 8 1013.0 1007.6 0.0
16/07:30am 18.2 18.2 11.3 64 4.0 NNW 2 7 1 4 1012.8 1007.4 0.0
16/07:00am 16.0 15.0 11.0 72 2.8 WNW 7 9 4 5 1012.7 1007.3 0.0
16/06:30am 13.9 13.0 11.2 84 1.5 WNW 7 9 4 5 1012.1 1006.7 0.0
16/06:00am 12.6 11.4 10.3 86 1.3 W 7 9 4 5 1012.0 1006.6 0.0
16/05:30am 11.1 10.3 10.9 99 0.1 NNW 6 7 3 4 1012.3 1006.8 0.0
16/05:00am 11.0 10.0 11.0 100 0.0 NE 7 9 4 5 1011.9 1006.5 0.0
16/04:57am 10.9 9.9 10.9 100 0.0 NE 7 9 4 5 1011.9 1006.5 0.0
16/04:30am 10.6 9.5 10.6 100 0.0 NE 7 9 4 5 1012.0 1006.6 0.0
16/04:24am 11.1 9.8 11.1 100 0.0 ENE 9 9 5 5 1012.0 1006.6 0.0
16/04:17am 12.1 11.4 12.1 100 0.0 ENE 7 9 4 5 1012.1 1006.7 0.0
16/04:00am 11.8 11.2 11.8 100 0.0 ENE 6 6 3 3 1012.3 1006.8 0.0
16/03:30am 11.5 12.0 11.5 100 0.0 CALM 0 0 0 0 1012.6 1007.2 0.0
16/03:00am 11.7 11.1 11.7 100 0.0 NE 6 6 3 3 1012.8 1007.4 0.0
16/02:30am 11.9 11.3 11.7 99 0.1 N 6 6 3 3 1013.0 1007.6 0.0
16/02:15am 12.4 11.8 12.2 99 0.1 NNE 7 9 4 5 1013.1 1007.7 0.0
16/02:00am 11.8 11.2 11.6 99 0.1 ENE 6 7 3 4 1013.3 1007.8 0.0
16/01:30am 12.6 13.4 12.4 99 0.1 CALM 0 0 0 0 1013.8 1008.4 0.0
16/01:00am 13.0 13.8 12.7 98 0.2 CALM 0 0 0 0 1014.0 1008.6 0.0
16/12:30am 12.6 12.9 12.3 98 0.2 E 2 6 1 3 1014.3 1008.9 0.0
16/12:00am 13.2 12.4 12.9 98 0.2 E 9 13 5 7 1014.5 1009.1 0.0
 
Date/Time
EDT
Temp
°C
App
Temp
°C
Dew
Point
Rel
Hum
%
Delta-T
°C
Wind Press
QNH
hPa
Press
MSL
hPa
Rain
since 9 am
mm
Dir
 
Spd
km/h
Gust
km/h
Spd
kts
Gust
kts
15/11:30pm 13.9 13.0 12.6 92 0.7 E 9 11 5 6 1014.8 1009.4 0.0
15/11:00pm 14.4 13.0 13.3 93 0.6 ENE 13 15 7 8 1015.1 1009.8 0.0
15/10:30pm 15.4 13.6 13.4 88 1.2 ENE 15 17 8 9 1015.0 1009.7 0.0
15/10:00pm 15.9 13.7 13.4 85 1.5 ENE 17 19 9 10 1015.0 1009.7 0.0
15/09:30pm 16.6 14.7 12.9 79 2.2 ENE 15 17 8 9 1014.8 1009.4 0.0
15/09:00pm 17.3 14.9 12.8 75 2.6 E 17 20 9 11 1014.6 1009.2 0.0
15/08:30pm 17.5 15.3 12.2 71 3.1 ENE 15 17 8 9 1014.5 1009.1 0.0

Other Formats:

Comma delimited format used in spreadsheet applications
http://www.bom.gov.au/fwo/IDN60801/IDN60801.95773.axf

JavaScript Object Notation format (JSON) in row-major order
http://www.bom.gov.au/fwo/IDN60801/IDN60801.95773.json